Time;durP1;ratioP1;P1;durP2;ratioP2;P2;SDS_P1;SDS_P2;PMS_P1;PMS_P2;Temp;Humidity;BMP_temperature;BMP_pressure;BME280_temperature;BME280_humidity;BME280_pressure;Samples;Min_cycle;Max_cycle;Signal;HPM_P1;HPM_P2
2021/04/14 00:00:56;;;;;;;4.30;1.48;;;3.30;99.90;;;;;;5057414;28;20508;-65
2021/04/14 00:03:24;;;;;;;2.67;0.98;;;3.20;99.90;;;;;;5062956;28;20677;-66
2021/04/14 00:05:52;;;;;;;4.65;1.08;;;3.20;99.90;;;;;;5061912;28;20507;-65
2021/04/14 00:08:18;;;;;;;5.40;1.60;;;3.10;99.90;;;;;;5059094;28;20037;-64
2021/04/14 00:10:45;;;;;;;2.67;1.27;;;3.00;99.90;;;;;;5059987;28;20044;-66
2021/04/14 00:13:24;;;;;;;2.65;1.33;;;3.00;99.90;;;;;;5058357;28;20083;-64
2021/04/14 00:15:53;;;;;;;5.18;1.30;;;2.90;99.90;;;;;;5062803;28;20144;-64
2021/04/14 00:18:20;;;;;;;2.55;1.17;;;2.90;99.90;;;;;;5060324;28;20043;-64
2021/04/14 00:20:46;;;;;;;4.75;1.42;;;2.90;99.90;;;;;;5062085;28;20056;-64
2021/04/14 00:23:12;;;;;;;7.80;1.52;;;2.80;99.90;;;;;;5058990;28;20037;-65
2021/04/14 00:25:42;;;;;;;9.68;2.60;;;2.80;99.90;;;;;;5060330;28;20041;-64
2021/04/14 00:28:09;;;;;;;4.87;1.70;;;2.70;99.90;;;;;;5059883;28;20443;-64
2021/04/14 00:30:34;;;;;;;5.40;1.75;;;2.70;99.90;;;;;;5059572;28;20842;-65
2021/04/14 00:33:00;;;;;;;2.88;1.25;;;2.70;99.90;;;;;;5059898;28;20036;-65
2021/04/14 00:35:27;;;;;;;3.00;1.33;;;2.60;99.90;;;;;;5058142;28;20430;-65
2021/04/14 00:37:53;;;;;;;3.08;1.30;;;2.60;99.90;;;;;;5062114;28;20119;-65
2021/04/14 00:40:31;;;;;;;4.22;1.83;;;2.60;99.90;;;;;;5056443;28;20032;-64
2021/04/14 00:42:58;;;;;;;2.85;1.42;;;2.60;99.90;;;;;;5058707;28;20040;-65
2021/04/14 00:45:24;;;;;;;7.10;1.42;;;2.60;99.90;;;;;;5058339;28;20029;-65
2021/04/14 00:47:50;;;;;;;2.67;1.50;;;2.60;99.90;;;;;;5058973;28;20152;-65
2021/04/14 00:50:18;;;;;;;3.42;1.48;;;2.60;99.90;;;;;;5061987;28;20047;-64
2021/04/14 00:52:44;;;;;;;3.28;1.65;;;2.60;99.90;;;;;;5062973;28;20052;-66
2021/04/14 00:55:14;;;;;;;2.85;1.60;;;2.60;99.90;;;;;;5075123;28;20071;-65
2021/04/14 00:57:40;;;;;;;1.50;1.00;;;2.60;99.90;;;;;;5078694;28;20032;-66
2021/04/14 01:00:12;;;;;;;4.75;1.60;;;2.60;99.90;;;;;;5074652;28;20186;-64
2021/04/14 01:02:38;;;;;;;3.25;1.30;;;2.70;99.90;;;;;;5059192;28;20037;-64
2021/04/14 01:05:16;;;;;;;3.58;1.40;;;2.70;99.90;;;;;;5056356;28;20486;-64
2021/04/14 01:07:42;;;;;;;4.07;2.30;;;2.80;99.90;;;;;;5057627;28;20032;-65
2021/04/14 01:10:08;;;;;;;3.42;1.50;;;2.80;99.90;;;;;;5059060;28;20033;-64
2021/04/14 01:12:34;;;;;;;3.97;1.63;;;2.80;99.90;;;;;;5061680;28;20040;-65
2021/04/14 01:14:59;;;;;;;7.70;1.52;;;2.80;99.90;;;;;;5060099;28;20405;-65
2021/04/14 01:17:25;;;;;;;4.32;1.60;;;2.90;99.90;;;;;;5062537;28;20409;-64
2021/04/14 01:19:50;;;;;;;6.47;1.55;;;2.90;99.90;;;;;;5059852;28;20036;-64
2021/04/14 01:22:16;;;;;;;8.43;2.05;;;2.90;99.90;;;;;;5063216;28;20541;-65
2021/04/14 01:24:41;;;;;;;3.60;1.60;;;2.90;99.90;;;;;;5060804;28;20037;-65
2021/04/14 01:27:08;;;;;;;5.03;1.55;;;3.00;99.90;;;;;;5063855;28;20040;-65
2021/04/14 01:29:34;;;;;;;4.43;1.70;;;3.00;99.90;;;;;;5066557;28;20037;-65
2021/04/14 01:31:59;;;;;;;4.82;1.40;;;3.00;99.90;;;;;;5058705;28;20519;-64
2021/04/14 01:34:25;;;;;;;2.35;1.23;;;3.00;99.90;;;;;;5062312;28;20029;-65
2021/04/14 01:36:51;;;;;;;4.88;1.55;;;3.00;99.90;;;;;;5062371;28;20027;-65
2021/04/14 01:39:16;;;;;;;4.03;1.77;;;3.00;99.90;;;;;;5077289;28;20441;-66
2021/04/14 01:41:43;;;;;;;3.03;1.55;;;3.00;99.90;;;;;;5056629;28;570424;-64
2021/04/14 01:44:10;;;;;;;7.03;1.70;;;3.10;99.90;;;;;;5065618;28;20032;-65
2021/04/14 01:46:37;;;;;;;4.00;1.45;;;3.10;99.90;;;;;;5062964;28;20120;-64
2021/04/14 01:49:03;;;;;;;2.47;1.42;;;3.10;99.90;;;;;;5061329;28;20033;-65
2021/04/14 01:51:28;;;;;;;2.75;1.30;;;3.20;99.90;;;;;;5062007;28;20091;-66
2021/04/14 01:56:22;;;;;;;4.10;1.90;;;3.30;99.90;;;;;;5064206;22;20041;-63
2021/04/14 01:58:48;;;;;;;5.40;1.50;;;3.30;99.90;;;;;;5037327;28;20049;-63
2021/04/14 02:01:14;;;;;;;3.80;1.60;;;3.30;99.90;;;;;;5025019;28;20041;-62
2021/04/14 02:03:40;;;;;;;4.40;1.80;;;3.30;99.90;;;;;;5039745;28;20037;-63
2021/04/14 02:06:09;;;;;;;5.38;1.30;;;3.30;99.90;;;;;;5041789;28;20041;-62
2021/04/14 02:08:35;;;;;;;3.05;1.75;;;3.30;99.90;;;;;;5040626;28;20430;-62
2021/04/14 02:11:01;;;;;;;6.03;2.10;;;3.40;99.90;;;;;;5023583;28;20068;-63
2021/04/14 02:13:30;;;;;;;4.22;1.88;;;3.30;99.90;;;;;;5042066;28;20036;-64
2021/04/14 02:15:56;;;;;;;4.63;1.17;;;3.30;99.90;;;;;;5040239;28;20136;-63
2021/04/14 02:18:22;;;;;;;9.00;2.17;;;3.30;99.90;;;;;;5042577;28;20120;-63
2021/04/14 02:20:48;;;;;;;4.68;1.90;;;3.30;99.90;;;;;;5038836;28;20057;-62
2021/04/14 02:23:24;;;;;;;4.60;1.52;;;3.30;99.90;;;;;;5043091;28;20036;-63
2021/04/14 02:25:52;;;;;;;3.83;1.83;;;3.30;99.90;;;;;;5035455;28;20036;-63
2021/04/14 02:28:18;;;;;;;2.08;1.48;;;3.30;99.90;;;;;;5043458;28;20120;-63
2021/04/14 02:30:43;;;;;;;4.70;1.80;;;3.30;99.90;;;;;;5035973;28;20029;-63
2021/04/14 02:33:10;;;;;;;2.83;1.45;;;3.30;99.90;;;;;;5055262;28;20048;-64
2021/04/14 02:35:36;;;;;;;3.13;1.38;;;3.30;99.90;;;;;;5027784;28;20623;-65
2021/04/14 02:38:03;;;;;;;4.47;2.03;;;3.30;99.90;;;;;;5024077;28;20033;-63
2021/04/14 02:40:29;;;;;;;3.20;1.60;;;3.30;99.90;;;;;;5041489;28;20033;-63
2021/04/14 02:42:55;;;;;;;5.85;1.83;;;3.20;99.90;;;;;;5039366;28;20039;-64
2021/04/14 02:45:25;;;;;;;4.25;2.05;;;3.20;99.90;;;;;;5041820;28;20031;-63
2021/04/14 02:47:50;;;;;;;3.95;1.75;;;3.20;99.90;;;;;;5038855;28;20425;-63
2021/04/14 02:50:16;;;;;;;3.28;1.88;;;3.20;99.90;;;;;;5042267;28;20032;-64
2021/04/14 02:52:43;;;;;;;5.32;1.65;;;3.20;99.90;;;;;;5039041;28;20457;-62
2021/04/14 02:55:11;;;;;;;4.00;2.15;;;3.20;99.90;;;;;;5024915;28;20043;-64
2021/04/14 02:57:36;;;;;;;3.63;2.10;;;3.10;99.90;;;;;;5025094;28;20084;-64
2021/04/14 03:00:07;;;;;;;4.18;1.80;;;3.20;99.90;;;;;;5040708;28;20367;-63
2021/04/14 03:02:34;;;;;;;4.03;1.83;;;3.20;99.90;;;;;;5041881;28;20034;-63
2021/04/14 03:05:00;;;;;;;4.35;1.67;;;3.10;99.90;;;;;;5039928;28;20029;-62
2021/04/14 03:07:25;;;;;;;9.95;2.00;;;3.10;99.90;;;;;;5040218;28;20029;-63
2021/04/14 03:09:51;;;;;;;3.63;1.85;;;3.10;99.90;;;;;;5040755;28;20033;-64
2021/04/14 03:12:16;;;;;;;4.85;1.70;;;3.10;99.90;;;;;;5038704;28;20285;-62
2021/04/14 03:14:42;;;;;;;6.57;2.20;;;3.10;99.90;;;;;;5024060;28;20060;-62
2021/04/14 03:17:08;;;;;;;5.93;2.15;;;3.10;99.90;;;;;;5038416;28;20025;-62
2021/04/14 03:19:33;;;;;;;3.67;1.98;;;3.10;99.90;;;;;;5041278;28;20087;-62
2021/04/14 03:22:00;;;;;;;7.65;1.70;;;3.10;99.90;;;;;;5039752;28;20401;-62
2021/04/14 03:24:25;;;;;;;6.53;2.03;;;3.10;99.90;;;;;;5042378;28;20336;-62
2021/04/14 03:26:51;;;;;;;4.93;1.98;;;3.10;99.90;;;;;;5038604;28;20060;-62
2021/04/14 03:29:16;;;;;;;7.90;2.13;;;3.10;99.90;;;;;;5023805;28;20052;-62
2021/04/14 03:31:42;;;;;;;4.15;2.28;;;3.10;99.90;;;;;;5038067;28;20026;-63
2021/04/14 03:34:08;;;;;;;6.20;1.83;;;3.10;99.90;;;;;;5022075;28;22655;-62
2021/04/14 03:36:33;;;;;;;5.32;2.00;;;3.10;99.90;;;;;;5039182;28;20485;-62
2021/04/14 03:38:59;;;;;;;3.72;1.90;;;3.10;99.90;;;;;;5021836;28;20105;-62
2021/04/14 03:41:28;;;;;;;5.80;2.00;;;3.10;99.90;;;;;;5040054;28;20029;-64
2021/04/14 03:43:55;;;;;;;5.40;2.45;;;3.10;99.90;;;;;;5042005;28;20120;-62
2021/04/14 03:46:21;;;;;;;4.78;2.08;;;3.10;99.90;;;;;;5020956;28;20026;-62
2021/04/14 03:48:47;;;;;;;7.88;2.60;;;3.10;99.90;;;;;;5041140;28;20171;-62
2021/04/14 03:51:13;;;;;;;6.28;2.55;;;3.10;99.90;;;;;;5037292;28;20485;-62
2021/04/14 03:53:39;;;;;;;3.15;1.98;;;3.10;99.90;;;;;;5033865;28;20037;-63
2021/04/14 03:56:11;;;;;;;5.70;2.40;;;3.10;99.90;;;;;;5022566;28;20083;-62
2021/04/14 03:58:39;;;;;;;3.33;1.90;;;3.10;99.90;;;;;;5020590;28;20045;-62
2021/04/14 04:01:11;;;;;;;5.95;2.38;;;3.10;99.90;;;;;;5040155;28;20041;-62
2021/04/14 04:03:37;;;;;;;5.25;2.97;;;3.10;99.90;;;;;;5019513;28;20040;-62
2021/04/14 04:06:03;;;;;;;4.32;2.55;;;3.10;99.90;;;;;;5021559;28;20029;-62
2021/04/14 04:08:29;;;;;;;5.20;2.15;;;3.10;99.90;;;;;;5039164;28;20473;-61
2021/04/14 04:10:55;;;;;;;5.15;2.67;;;3.10;99.90;;;;;;5021438;28;20033;-61
2021/04/14 04:13:21;;;;;;;5.78;2.72;;;3.10;99.90;;;;;;5040084;28;20040;-64
2021/04/14 04:15:47;;;;;;;4.68;2.40;;;3.10;99.90;;;;;;5038402;28;20037;-63
2021/04/14 04:18:12;;;;;;;7.95;2.63;;;3.10;99.90;;;;;;5022968;28;20131;-63
2021/04/14 04:20:39;;;;;;;4.32;1.80;;;3.10;99.90;;;;;;5037758;28;20116;-64
2021/04/14 04:23:07;;;;;;;3.42;2.15;;;3.10;99.90;;;;;;5040626;28;20036;-63
2021/04/14 04:25:33;;;;;;;5.47;2.83;;;3.10;99.90;;;;;;5020614;28;20033;-63
2021/04/14 04:28:00;;;;;;;4.38;2.42;;;3.10;99.90;;;;;;5041096;28;20063;-64
2021/04/14 04:30:27;;;;;;;4.72;2.35;;;3.10;99.90;;;;;;5022586;28;20026;-63
2021/04/14 04:32:53;;;;;;;5.93;2.50;;;3.10;99.90;;;;;;5037240;28;20045;-63
2021/04/14 04:35:19;;;;;;;6.93;2.90;;;3.10;99.90;;;;;;5014880;28;20554;-62
2021/04/14 04:37:45;;;;;;;5.10;2.53;;;3.10;99.90;;;;;;5033169;28;20084;-63
2021/04/14 04:40:11;;;;;;;7.25;2.25;;;3.10;99.90;;;;;;5033818;28;20127;-63
2021/04/14 04:42:37;;;;;;;5.38;2.17;;;3.10;99.90;;;;;;5033320;28;20112;-63
2021/04/14 04:45:08;;;;;;;5.88;2.50;;;3.10;99.90;;;;;;5034555;28;20553;-62
2021/04/14 04:47:33;;;;;;;3.55;2.10;;;3.20;99.90;;;;;;5033096;28;20288;-62
2021/04/14 04:49:59;;;;;;;5.28;2.55;;;3.30;99.90;;;;;;5034754;28;20121;-61
2021/04/14 04:52:25;;;;;;;6.35;2.22;;;3.40;99.90;;;;;;5020303;28;20116;-63
2021/04/14 04:54:50;;;;;;;6.65;2.80;;;3.40;99.90;;;;;;5029611;28;20038;-64
2021/04/14 04:57:16;;;;;;;4.50;2.38;;;3.40;99.90;;;;;;5030042;28;20041;-63
2021/04/14 04:59:42;;;;;;;5.05;1.80;;;3.50;99.90;;;;;;5036063;28;20070;-62
2021/04/14 05:02:08;;;;;;;6.18;2.30;;;3.50;99.90;;;;;;5041180;28;20148;-62
2021/04/14 05:04:33;;;;;;;11.40;3.13;;;3.60;99.90;;;;;;5031632;28;20390;-63
2021/04/14 05:06:59;;;;;;;8.50;3.72;;;3.50;99.90;;;;;;5038240;28;20101;-63
2021/04/14 05:09:24;;;;;;;4.50;2.50;;;3.50;99.90;;;;;;5036447;28;20037;-62
2021/04/14 05:11:50;;;;;;;4.15;1.95;;;3.60;99.90;;;;;;5035061;28;20040;-62
2021/04/14 05:14:16;;;;;;;9.50;2.40;;;3.60;99.90;;;;;;5035607;28;20040;-64
2021/04/14 05:16:42;;;;;;;3.97;2.13;;;3.60;99.90;;;;;;5016199;28;20033;-63
2021/04/14 05:19:08;;;;;;;5.63;2.30;;;3.70;99.90;;;;;;5036321;28;20374;-62
2021/04/14 05:21:38;;;;;;;4.88;2.05;;;3.80;99.90;;;;;;5033998;28;20106;-63
2021/04/14 05:24:04;;;;;;;7.97;2.50;;;3.90;99.90;;;;;;5038790;28;20128;-65
2021/04/14 05:26:29;;;;;;;7.50;2.10;;;3.90;99.90;;;;;;5035412;28;20038;-63
2021/04/14 05:28:55;;;;;;;6.07;2.55;;;3.90;99.90;;;;;;5037639;28;20363;-63
2021/04/14 05:31:21;;;;;;;4.57;2.20;;;4.00;99.90;;;;;;5037248;28;20060;-62
2021/04/14 05:33:47;;;;;;;3.83;1.88;;;4.00;99.90;;;;;;5013067;28;20107;-62
2021/04/14 05:36:13;;;;;;;5.15;2.38;;;4.10;99.90;;;;;;5038308;28;20083;-62
2021/04/14 05:38:39;;;;;;;6.07;1.88;;;4.10;99.90;;;;;;5035146;28;20504;-62
2021/04/14 05:41:05;;;;;;;6.50;2.22;;;4.20;99.90;;;;;;5038873;28;20112;-62
2021/04/14 05:43:36;;;;;;;6.05;2.08;;;4.20;99.90;;;;;;5020408;28;20045;-63
2021/04/14 05:46:12;;;;;;;5.40;2.20;;;4.30;99.90;;;;;;5038976;28;20044;-64
2021/04/14 05:48:39;;;;;;;2.78;1.42;;;4.30;99.90;;;;;;5032091;28;20041;-62
2021/04/14 05:51:07;;;;;;;6.97;2.05;;;4.40;99.90;;;;;;5039400;28;20037;-64
2021/04/14 05:53:38;;;;;;;5.53;2.38;;;4.40;99.90;;;;;;5033741;28;20092;-64
2021/04/14 05:56:04;;;;;;;;;;;4.50;99.90;;;;;;5030648;28;20461;-63
2021/04/14 05:58:30;;;;;;;5.05;2.78;;;4.50;99.90;;;;;;5023418;28;19924;-62
2021/04/14 06:00:56;;;;;;;6.60;3.38;;;4.60;99.90;;;;;;5041868;28;20033;-64
2021/04/14 06:03:22;;;;;;;7.72;3.47;;;4.60;99.90;;;;;;5040231;28;20068;-63
2021/04/14 06:05:56;;;;;;;7.97;3.03;;;4.60;99.90;;;;;;5040318;28;20036;-63
2021/04/14 06:08:22;;;;;;;7.97;3.35;;;4.60;99.90;;;;;;5040168;28;20037;-63
2021/04/14 06:10:48;;;;;;;8.40;4.13;;;4.60;99.90;;;;;;5041015;28;20752;-63
2021/04/14 06:13:14;;;;;;;8.35;3.88;;;4.60;99.90;;;;;;5026654;28;20041;-63
2021/04/14 06:15:40;;;;;;;11.18;4.05;;;4.60;99.90;;;;;;5036690;28;20029;-63
2021/04/14 06:18:05;;;;;;;9.52;4.57;;;4.60;99.90;;;;;;5043122;28;20527;-64
2021/04/14 06:20:33;;;;;;;12.25;4.95;;;4.70;99.90;;;;;;5039359;28;20029;-63
2021/04/14 06:23:01;;;;;;;10.63;4.93;;;4.70;99.90;;;;;;5027086;28;20052;-63
2021/04/14 06:25:31;;;;;;;8.35;3.97;;;4.70;99.90;;;;;;5039925;28;20063;-64
2021/04/14 06:28:03;;;;;;;7.95;4.22;;;4.70;99.90;;;;;;5041629;28;20052;-64
2021/04/14 06:30:31;;;;;;;11.13;5.00;;;4.60;99.90;;;;;;5039461;28;20100;-63
2021/04/14 06:32:56;;;;;;;11.23;4.53;;;4.60;99.90;;;;;;5042045;28;20051;-63
2021/04/14 06:35:23;;;;;;;13.00;4.97;;;4.60;99.90;;;;;;5040505;28;20108;-62
2021/04/14 06:37:49;;;;;;;10.30;4.70;;;4.60;99.90;;;;;;5040969;28;20029;-63
2021/04/14 06:43:27;;;;;;;8.45;4.40;;;4.50;99.90;;;;;;5036158;28;20029;-62
2021/04/14 06:45:58;;;;;;;9.60;4.72;;;4.50;99.90;;;;;;5039494;28;20795;-63
2021/04/14 06:48:32;;;;;;;11.77;4.90;;;4.30;99.90;;;;;;5039346;28;20037;-63
2021/04/14 06:51:39;;;;;;;13.57;5.50;;;4.30;99.90;;;;;;5041634;28;20082;-62
2021/04/14 06:54:47;;;;;;;10.77;5.10;;;4.10;99.90;;;;;;5016265;28;20044;-62
2021/04/14 06:57:29;;;;;;;9.88;5.00;;;4.00;99.90;;;;;;5038165;28;20045;-62
2021/04/14 07:00:07;;;;;;;11.35;5.35;;;3.90;99.90;;;;;;5037237;28;20033;-63
2021/04/14 07:02:43;;;;;;;11.63;4.88;;;3.90;99.90;;;;;;5036194;28;20039;-62
2021/04/14 07:05:12;;;;;;;9.52;5.10;;;3.80;99.90;;;;;;5035017;28;20060;-63
2021/04/14 07:07:39;;;;;;;15.10;6.18;;;3.70;99.90;;;;;;5038884;28;20037;-62
2021/04/14 07:10:17;;;;;;;13.75;5.40;;;3.60;99.90;;;;;;5040049;28;20029;-63
2021/04/14 07:12:42;;;;;;;11.02;4.93;;;3.50;99.90;;;;;;5026634;28;20101;-62
2021/04/14 07:15:10;;;;;;;14.25;4.90;;;3.60;99.90;;;;;;5040992;28;20119;-62
2021/04/14 07:17:54;;;;;;;14.13;5.18;;;3.50;99.90;;;;;;5039860;28;20032;-62
2021/04/14 07:20:32;;;;;;;13.23;4.82;;;3.50;99.90;;;;;;5041787;28;20036;-62
2021/04/14 07:23:31;;;;;;;11.85;5.47;;;3.50;99.90;;;;;;5036629;28;20132;-62
2021/04/14 07:26:05;;;;;;;11.45;5.13;;;3.50;99.90;;;;;;5040940;28;20025;-66
2021/04/14 07:28:53;;;;;;;10.10;4.50;;;3.50;99.90;;;;;;5031862;28;20033;-62
2021/04/14 07:31:44;;;;;;;12.80;5.88;;;3.50;99.90;;;;;;5023148;28;20448;-61
2021/04/14 07:34:13;;;;;;;13.00;5.53;;;3.60;99.90;;;;;;5026292;28;20045;-62
2021/04/14 07:37:07;;;;;;;11.05;5.10;;;3.70;99.90;;;;;;5038739;28;20119;-63
2021/04/14 07:39:41;;;;;;;14.02;5.13;;;3.80;99.90;;;;;;5036788;28;20037;-61
2021/04/14 07:42:14;;;;;;;13.85;4.57;;;3.90;99.90;;;;;;5040103;28;20047;-62
2021/04/14 07:45:05;;;;;;;14.10;4.50;;;4.00;99.90;;;;;;5038754;28;20037;-61
2021/04/14 07:47:31;;;;;;;10.23;5.35;;;4.20;99.90;;;;;;5036131;28;20364;-61
2021/04/14 07:49:58;;;;;;;7.68;3.67;;;4.40;99.90;;;;;;5026189;28;20493;-62
2021/04/14 07:52:26;;;;;;;9.98;4.57;;;4.50;99.90;;;;;;5038798;28;20425;-63
2021/04/14 07:54:53;;;;;;;7.95;3.95;;;4.70;99.90;;;;;;5046660;22;20029;-72
2021/04/14 07:57:27;;;;;;;9.05;3.85;;;4.90;99.90;;;;;;5013528;28;20387;-73
2021/04/14 07:59:53;;;;;;;8.85;3.92;;;5.20;99.90;;;;;;5031204;28;20041;-72
2021/04/14 08:02:31;;;;;;;9.70;4.35;;;5.40;99.90;;;;;;5029650;28;20049;-72
2021/04/14 08:05:27;;;;;;;6.85;3.70;;;5.60;99.90;;;;;;5002396;28;20034;-71
2021/04/14 08:07:53;;;;;;;10.05;3.45;;;5.80;99.90;;;;;;5009789;28;20124;-72
2021/04/14 08:10:24;;;;;;;10.77;4.07;;;5.90;99.90;;;;;;5012902;28;20037;-72
2021/04/14 08:13:07;;;;;;;8.70;3.70;;;6.10;99.90;;;;;;5010779;28;20092;-71
2021/04/14 08:15:34;;;;;;;6.90;3.40;;;6.20;99.90;;;;;;5006736;28;20044;-72
2021/04/14 08:18:26;;;;;;;7.15;3.28;;;6.30;99.90;;;;;;5009691;28;20396;-72
2021/04/14 08:21:23;;;;;;;8.43;3.53;;;6.40;99.90;;;;;;5010376;28;20072;-71
2021/04/14 08:24:01;;;;;;;10.70;3.63;;;6.40;99.90;;;;;;5006257;28;20033;-71
2021/04/14 08:26:29;;;;;;;8.70;3.58;;;6.60;99.90;;;;;;4990848;28;20037;-71
2021/04/14 08:29:08;;;;;;;16.17;4.60;;;6.80;99.90;;;;;;5003637;28;20033;-71
2021/04/14 08:31:45;;;;;;;7.55;2.92;;;7.10;99.90;;;;;;5009169;28;20045;-73
2021/04/14 08:34:32;;;;;;;10.20;4.43;;;7.30;99.90;;;;;;5009757;28;20084;-72
2021/04/14 08:37:14;;;;;;;7.78;3.38;;;7.40;99.90;;;;;;5009491;28;20037;-71
2021/04/14 08:39:49;;;;;;;7.53;3.72;;;7.60;99.90;;;;;;5007959;28;20404;-71
2021/04/14 08:42:23;;;;;;;6.38;3.30;;;7.80;99.90;;;;;;5012500;28;20034;-70
2021/04/14 08:44:55;;;;;;;8.05;3.92;;;8.00;99.90;;;;;;5010111;28;20046;-70
2021/04/14 08:47:21;;;;;;;5.95;3.50;;;8.30;99.90;;;;;;5004338;28;20172;-73
2021/04/14 08:49:50;;;;;;;7.68;3.17;;;8.50;99.90;;;;;;5008935;28;20133;-72
2021/04/14 08:52:19;;;;;;;9.07;3.67;;;8.40;99.90;;;;;;5006716;28;20026;-72
2021/04/14 08:54:44;;;;;;;19.60;4.22;;;8.50;99.90;;;;;;5005159;28;20038;-70
2021/04/14 08:57:10;;;;;;;7.47;3.30;;;8.40;99.90;;;;;;4992279;28;20045;-70
2021/04/14 08:59:39;;;;;;;9.27;3.92;;;8.30;99.90;;;;;;4984730;28;20034;-70
2021/04/14 09:02:08;;;;;;;6.78;3.55;;;8.40;99.90;;;;;;5008432;28;20629;-71
2021/04/14 09:04:35;;;;;;;7.10;3.42;;;8.50;99.90;;;;;;5010990;28;20237;-71
2021/04/14 09:07:02;;;;;;;8.20;4.03;;;8.60;99.90;;;;;;4986897;28;20122;-71
2021/04/14 09:09:30;;;;;;;6.82;3.40;;;8.50;99.90;;;;;;5009899;28;20188;-71
2021/04/14 09:12:05;;;;;;;8.40;3.92;;;8.60;99.90;;;;;;5012737;28;20060;-71
2021/04/14 09:14:32;;;;;;;9.00;3.67;;;8.70;99.90;;;;;;5007223;28;20411;-70
2021/04/14 09:17:15;;;;;;;9.88;3.30;;;9.00;99.90;;;;;;5011490;28;20053;-71
2021/04/14 09:19:43;;;;;;;7.18;3.67;;;9.20;99.90;;;;;;5010068;28;20120;-71
2021/04/14 09:22:17;;;;;;;7.28;3.00;;;9.40;99.90;;;;;;5012983;28;20067;-71
2021/04/14 09:25:05;;;;;;;6.55;3.50;;;9.50;99.90;;;;;;5009831;28;20042;-71
2021/04/14 09:27:50;;;;;;;5.95;3.30;;;9.70;99.90;;;;;;5007426;28;20668;-71
2021/04/14 09:30:31;;;;;;;8.00;3.33;;;9.80;99.90;;;;;;5008204;28;20025;-71
2021/04/14 09:33:14;;;;;;;9.63;3.38;;;9.50;99.90;;;;;;5012477;28;20496;-71
2021/04/14 09:35:57;;;;;;;6.68;3.05;;;9.50;99.90;;;;;;5016408;28;20037;-70
2021/04/14 09:40:49;;;;;;;5.82;2.72;;;9.30;99.90;;;;;;5011180;28;20038;-70
2021/04/14 09:43:25;;;;;;;6.88;3.20;;;9.30;99.90;;;;;;5016407;28;20049;-70
2021/04/14 09:46:08;;;;;;;6.60;3.47;;;9.40;99.90;;;;;;5010825;28;20034;-70
2021/04/14 09:48:45;;;;;;;8.60;4.22;;;9.40;99.90;;;;;;5003690;28;20136;-70
2021/04/14 09:51:29;;;;;;;6.97;2.67;;;9.50;99.90;;;;;;5009957;28;20519;-70
2021/04/14 09:54:00;;;;;;;10.90;3.40;;;9.50;99.90;;;;;;5008059;28;20513;-70
2021/04/14 09:56:30;;;;;;;9.15;3.22;;;9.60;99.90;;;;;;5009142;28;20499;-71
2021/04/14 09:59:09;;;;;;;6.45;3.08;;;9.80;99.90;;;;;;5011305;28;20087;-70
2021/04/14 10:01:38;;;;;;;7.43;3.95;;;10.00;99.90;;;;;;5011589;28;20066;-71
2021/04/14 10:04:08;;;;;;;7.72;3.35;;;10.20;99.90;;;;;;5012973;28;20125;-71
2021/04/14 10:06:34;;;;;;;8.57;3.17;;;10.10;99.90;;;;;;5012221;28;20052;-71
2021/04/14 10:09:07;;;;;;;5.55;3.00;;;10.00;99.90;;;;;;5012227;28;20034;-71
2021/04/14 10:11:39;;;;;;;6.88;3.08;;;10.10;99.90;;;;;;5008283;28;20117;-70
2021/04/14 10:14:20;;;;;;;6.03;2.50;;;10.30;99.00;;;;;;5015106;28;20034;-70
2021/04/14 10:16:48;;;;;;;5.18;2.28;;;10.40;97.90;;;;;;5010310;28;20487;-71
2021/04/14 10:19:26;;;;;;;8.27;2.95;;;10.60;95.50;;;;;;5012314;28;20034;-71
2021/04/14 10:21:52;;;;;;;6.70;2.10;;;10.80;93.70;;;;;;4994339;28;20034;-71
2021/04/14 10:24:18;;;;;;;5.18;2.72;;;10.90;92.50;;;;;;5010412;28;20053;-71
2021/04/14 10:26:52;;;;;;;8.07;2.03;;;11.00;91.80;;;;;;5009808;28;20098;-71
2021/04/14 10:29:21;;;;;;;4.50;1.90;;;11.00;95.30;;;;;;5010220;28;20755;-71
2021/04/14 10:31:48;;;;;;;3.95;1.60;;;11.00;82.70;;;;;;5009966;28;20132;-70
2021/04/14 10:34:25;;;;;;;6.97;1.85;;;11.10;77.60;;;;;;4989560;28;20119;-71
2021/04/14 10:36:52;;;;;;;5.38;2.35;;;11.00;84.20;;;;;;5007003;28;20038;-71
2021/04/14 10:39:27;;;;;;;9.40;2.00;;;10.90;87.90;;;;;;5012714;28;20499;-70
2021/04/14 10:41:56;;;;;;;3.35;1.38;;;10.60;86.50;;;;;;5007657;28;20116;-70
2021/04/14 10:44:28;;;;;;;3.85;1.13;;;10.50;89.60;;;;;;5010931;28;20173;-70
2021/04/14 10:47:09;;;;;;;3.28;1.48;;;10.40;80.20;;;;;;5012875;28;20034;-71
2021/04/14 10:49:36;;;;;;;3.17;1.20;;;10.40;91.20;;;;;;4985193;28;20045;-70
2021/04/14 10:52:16;;;;;;;1.92;0.88;;;10.30;86.00;;;;;;5011035;28;20041;-70
2021/04/14 10:54:47;;;;;;;4.38;0.93;;;10.00;80.90;;;;;;5008173;28;20042;-71
2021/04/14 10:57:38;;;;;;;3.00;0.85;;;9.80;79.40;;;;;;5008182;28;20104;-70
2021/04/14 11:00:20;;;;;;;3.45;0.70;;;9.60;82.90;;;;;;5006473;28;20038;-71
2021/04/14 11:02:49;;;;;;;4.18;0.80;;;9.40;84.00;;;;;;5007764;28;20506;-70
2021/04/14 11:05:18;;;;;;;5.18;1.52;;;9.40;85.90;;;;;;5006349;28;20080;-70
2021/04/14 11:07:45;;;;;;;4.70;0.52;;;9.30;83.90;;;;;;5010956;28;20614;-70
2021/04/14 11:10:33;;;;;;;2.42;0.40;;;9.40;84.60;;;;;;5011134;28;20144;-71
2021/04/14 11:13:00;;;;;;;2.00;0.50;;;9.50;82.40;;;;;;5009853;28;20568;-71
2021/04/14 11:15:32;;;;;;;5.65;1.05;;;9.60;83.40;;;;;;5011567;28;20381;-71
2021/04/14 11:18:07;;;;;;;3.53;0.35;;;9.60;84.70;;;;;;4994621;28;20048;-71
2021/04/14 11:20:48;;;;;;;1.20;0.43;;;9.80;72.50;;;;;;5009203;28;20034;-71
2021/04/14 11:23:22;;;;;;;1.52;0.40;;;9.80;76.10;;;;;;4992550;28;20895;-71
2021/04/14 11:25:48;;;;;;;0.77;0.30;;;9.90;73.90;;;;;;5009175;28;20462;-71
2021/04/14 11:28:18;;;;;;;0.88;0.20;;;9.80;77.50;;;;;;5005466;28;20043;-71
2021/04/14 11:30:50;;;;;;;3.63;0.25;;;10.00;80.90;;;;;;5009171;28;20083;-71
2021/04/14 11:33:18;;;;;;;2.90;0.32;;;10.10;77.60;;;;;;4997053;28;20046;-70
2021/04/14 11:35:48;;;;;;;0.75;0.25;;;10.00;70.20;;;;;;5000998;28;20084;-71
2021/04/14 11:38:40;;;;;;;1.05;0.30;;;10.00;72.50;;;;;;5003574;28;20030;-70
2021/04/14 11:41:25;;;;;;;2.13;0.10;;;10.00;72.40;;;;;;5002980;28;20084;-71
2021/04/14 11:43:51;;;;;;;1.00;0.13;;;10.00;70.30;;;;;;5008184;28;20038;-69
2021/04/14 11:46:40;;;;;;;0.43;0.10;;;10.00;68.40;;;;;;5002687;28;20033;-70
2021/04/14 11:49:11;;;;;;;1.02;0.00;;;10.00;67.10;;;;;;4990551;28;20042;-70
2021/04/14 11:51:43;;;;;;;;;;;9.90;62.40;;;;;;4997639;28;20574;-70
2021/04/14 11:54:36;;;;;;;1.75;0.32;;;9.80;63.60;;;;;;4980603;28;19928;-70
2021/04/14 11:57:06;;;;;;;2.08;0.00;;;9.70;61.90;;;;;;5000991;28;20044;-71
2021/04/14 11:59:35;;;;;;;0.73;0.13;;;9.70;61.90;;;;;;4984222;28;20034;-70
2021/04/14 12:02:04;;;;;;;1.02;0.00;;;9.70;62.60;;;;;;4999982;28;20030;-71
2021/04/14 12:04:31;;;;;;;2.03;0.03;;;9.60;61.80;;;;;;4984910;28;20095;-72
2021/04/14 12:06:57;;;;;;;0.52;0.10;;;9.70;61.90;;;;;;5003720;28;20030;-71
2021/04/14 12:09:22;;;;;;;1.08;0.20;;;9.70;62.10;;;;;;5006252;28;20030;-72
2021/04/14 12:11:59;;;;;;;0.20;0.05;;;9.70;61.40;;;;;;5008140;28;20100;-71
2021/04/14 12:14:25;;;;;;;3.00;0.20;;;9.80;61.20;;;;;;5009545;28;20044;-72
2021/04/14 12:16:51;;;;;;;1.13;0.00;;;10.00;61.70;;;;;;4992616;28;20382;-71
2021/04/14 12:19:16;;;;;;;0.90;0.00;;;9.90;60.50;;;;;;5011095;28;20559;-72
2021/04/14 12:21:42;;;;;;;1.38;0.10;;;9.80;57.40;;;;;;5010771;28;20132;-72
2021/04/14 12:24:08;;;;;;;3.47;0.40;;;9.70;60.40;;;;;;5008662;28;20103;-71
2021/04/14 12:26:33;;;;;;;2.55;0.50;;;9.70;65.00;;;;;;5009749;28;20049;-71
2021/04/14 12:28:59;;;;;;;3.35;0.22;;;9.60;68.10;;;;;;4996052;28;20075;-71
2021/04/14 12:31:24;;;;;;;1.98;0.35;;;9.70;74.30;;;;;;5009649;28;20423;-73
2021/04/14 12:33:50;;;;;;;2.13;0.52;;;9.80;72.10;;;;;;5011409;28;20366;-71
2021/04/14 12:36:16;;;;;;;4.25;0.20;;;9.80;72.00;;;;;;4991152;28;20049;-71
2021/04/14 12:38:42;;;;;;;4.50;0.45;;;9.80;71.20;;;;;;5016774;28;20041;-71
2021/04/14 12:41:07;;;;;;;0.77;0.10;;;9.80;72.30;;;;;;5002834;28;20048;-71
2021/04/14 12:43:33;;;;;;;1.95;0.05;;;9.90;73.40;;;;;;5008490;28;20106;-71
2021/04/14 12:45:59;;;;;;;2.80;0.28;;;10.00;69.90;;;;;;5008760;28;20612;-71
2021/04/14 12:48:27;;;;;;;0.75;0.17;;;9.90;67.40;;;;;;5008942;28;20037;-72
2021/04/14 12:51:02;;;;;;;2.03;0.50;;;10.00;69.70;;;;;;5008603;28;20620;-72
2021/04/14 12:53:29;;;;;;;5.38;0.77;;;10.00;66.40;;;;;;5003083;28;20133;-71
2021/04/14 12:55:59;;;;;;;2.92;0.30;;;9.90;65.90;;;;;;5008874;28;20048;-71
2021/04/14 12:58:32;;;;;;;0.77;0.20;;;9.70;67.20;;;;;;5008454;28;20045;-72
2021/04/14 13:00:58;;;;;;;1.55;0.20;;;9.80;69.30;;;;;;5009485;28;20042;-72
2021/04/14 13:03:51;;;;;;;1.17;0.10;;;9.80;69.40;;;;;;5009167;28;20407;-72
2021/04/14 13:06:26;;;;;;;2.70;0.17;;;9.80;66.60;;;;;;4987942;28;20112;-71
2021/04/14 13:08:54;;;;;;;4.30;0.30;;;9.70;67.50;;;;;;5012672;28;20113;-72
2021/04/14 13:11:24;;;;;;;1.20;0.20;;;9.70;71.30;;;;;;5013977;28;20085;-76
2021/04/14 13:13:50;;;;;;;2.63;0.65;;;9.80;71.00;;;;;;4996929;28;20034;-73
2021/04/14 13:16:26;;;;;;;3.78;0.38;;;9.90;72.10;;;;;;5015445;28;20034;-74
2021/04/14 13:18:52;;;;;;;2.72;0.13;;;9.80;73.60;;;;;;5018081;28;20047;-73